sensor_id;sensor_type;location;lat;lon;timestamp;P1;durP1;ratioP1;P2;durP2;ratioP2
58340;SDS011;44149;43.060;0.104;2022-12-07T00:00:02;0.47;;;0.40;;
58340;SDS011;44149;43.060;0.104;2022-12-07T00:02:28;0.30;;;0.30;;
58340;SDS011;44149;43.060;0.104;2022-12-07T00:04:54;0.30;;;0.30;;
58340;SDS011;44149;43.060;0.104;2022-12-07T00:07:20;1.13;;;0.50;;
58340;SDS011;44149;43.060;0.104;2022-12-07T00:09:47;0.85;;;0.50;;
58340;SDS011;44149;43.060;0.104;2022-12-07T00:12:13;0.60;;;0.50;;
58340;SDS011;44149;43.060;0.104;2022-12-07T00:14:39;0.40;;;0.40;;
58340;SDS011;44149;43.060;0.104;2022-12-07T00:17:05;1.52;;;0.50;;
58340;SDS011;44149;43.060;0.104;2022-12-07T00:19:31;1.08;;;0.73;;
58340;SDS011;44149;43.060;0.104;2022-12-07T00:21:57;3.78;;;0.50;;
58340;SDS011;44149;43.060;0.104;2022-12-07T00:24:24;0.50;;;0.45;;
58340;SDS011;44149;43.060;0.104;2022-12-07T00:26:50;0.35;;;0.35;;
58340;SDS011;44149;43.060;0.104;2022-12-07T00:29:19;0.40;;;0.40;;
58340;SDS011;44149;43.060;0.104;2022-12-07T00:31:46;0.38;;;0.38;;
58340;SDS011;44149;43.060;0.104;2022-12-07T00:34:14;0.77;;;0.50;;
58340;SDS011;44149;43.060;0.104;2022-12-07T00:36:41;0.50;;;0.50;;
58340;SDS011;44149;43.060;0.104;2022-12-07T00:39:07;0.32;;;0.32;;
58340;SDS011;44149;43.060;0.104;2022-12-07T00:41:33;1.23;;;0.40;;
58340;SDS011;44149;43.060;0.104;2022-12-07T00:43:59;4.97;;;0.43;;
58340;SDS011;44149;43.060;0.104;2022-12-07T00:46:26;0.40;;;0.38;;
58340;SDS011;44149;43.060;0.104;2022-12-07T00:48:52;0.40;;;0.40;;
58340;SDS011;44149;43.060;0.104;2022-12-07T00:51:20;0.60;;;0.38;;
58340;SDS011;44149;43.060;0.104;2022-12-07T00:53:46;0.52;;;0.50;;
58340;SDS011;44149;43.060;0.104;2022-12-07T00:56:20;0.65;;;0.30;;
58340;SDS011;44149;43.060;0.104;2022-12-07T00:58:54;0.60;;;0.60;;
58340;SDS011;44149;43.060;0.104;2022-12-07T01:03:46;0.80;;;0.40;;
58340;SDS011;44149;43.060;0.104;2022-12-07T01:06:16;0.47;;;0.47;;
58340;SDS011;44149;43.060;0.104;2022-12-07T01:08:43;1.00;;;0.38;;
58340;SDS011;44149;43.060;0.104;2022-12-07T01:11:09;0.55;;;0.55;;
58340;SDS011;44149;43.060;0.104;2022-12-07T01:13:37;1.88;;;0.40;;
58340;SDS011;44149;43.060;0.104;2022-12-07T01:16:04;0.40;;;0.40;;
58340;SDS011;44149;43.060;0.104;2022-12-07T01:18:33;1.08;;;0.40;;
58340;SDS011;44149;43.060;0.104;2022-12-07T01:23:56;0.40;;;0.40;;
58340;SDS011;44149;43.060;0.104;2022-12-07T01:26:23;0.32;;;0.32;;
58340;SDS011;44149;43.060;0.104;2022-12-07T01:28:50;0.70;;;0.50;;
58340;SDS011;44149;43.060;0.104;2022-12-07T01:31:19;0.70;;;0.40;;
58340;SDS011;44149;43.060;0.104;2022-12-07T01:33:46;0.45;;;0.40;;
58340;SDS011;44149;43.060;0.104;2022-12-07T01:38:43;0.80;;;0.75;;
58340;SDS011;44149;43.060;0.104;2022-12-07T01:41:09;0.60;;;0.50;;
58340;SDS011;44149;43.060;0.104;2022-12-07T01:43:36;0.57;;;0.40;;
58340;SDS011;44149;43.060;0.104;2022-12-07T01:46:03;0.35;;;0.35;;
58340;SDS011;44149;43.060;0.104;2022-12-07T01:48:36;0.60;;;0.60;;
58340;SDS011;44149;43.060;0.104;2022-12-07T01:51:05;0.40;;;0.40;;
58340;SDS011;44149;43.060;0.104;2022-12-07T01:53:34;1.40;;;0.68;;
58340;SDS011;44149;43.060;0.104;2022-12-07T01:56:01;0.60;;;0.40;;
58340;SDS011;44149;43.060;0.104;2022-12-07T01:58:28;0.30;;;0.30;;
58340;SDS011;44149;43.060;0.104;2022-12-07T02:00:54;0.50;;;0.50;;
58340;SDS011;44149;43.060;0.104;2022-12-07T02:03:34;0.80;;;0.60;;
58340;SDS011;44149;43.060;0.104;2022-12-07T02:06:01;2.10;;;0.68;;
58340;SDS011;44149;43.060;0.104;2022-12-07T02:08:28;0.38;;;0.38;;
58340;SDS011;44149;43.060;0.104;2022-12-07T02:10:54;0.65;;;0.60;;
58340;SDS011;44149;43.060;0.104;2022-12-07T02:13:28;0.90;;;0.47;;
58340;SDS011;44149;43.060;0.104;2022-12-07T02:28:34;0.57;;;0.57;;
58340;SDS011;44149;43.060;0.104;2022-12-07T02:31:03;0.90;;;0.55;;
58340;SDS011;44149;43.060;0.104;2022-12-07T02:33:33;0.95;;;0.80;;
58340;SDS011;44149;43.060;0.104;2022-12-07T02:36:06;0.30;;;0.30;;
58340;SDS011;44149;43.060;0.104;2022-12-07T02:41:01;0.85;;;0.40;;
58340;SDS011;44149;43.060;0.104;2022-12-07T02:43:38;1.45;;;0.55;;
58340;SDS011;44149;43.060;0.104;2022-12-07T02:46:13;0.57;;;0.47;;
58340;SDS011;44149;43.060;0.104;2022-12-07T02:48:40;0.80;;;0.50;;
58340;SDS011;44149;43.060;0.104;2022-12-07T02:51:07;1.10;;;0.50;;
58340;SDS011;44149;43.060;0.104;2022-12-07T02:53:35;1.35;;;0.50;;
58340;SDS011;44149;43.060;0.104;2022-12-07T02:56:03;0.50;;;0.50;;
58340;SDS011;44149;43.060;0.104;2022-12-07T02:58:34;3.03;;;0.55;;
58340;SDS011;44149;43.060;0.104;2022-12-07T03:03:30;2.47;;;0.60;;
58340;SDS011;44149;43.060;0.104;2022-12-07T03:11:14;0.82;;;0.50;;
58340;SDS011;44149;43.060;0.104;2022-12-07T03:18:46;1.25;;;0.63;;
58340;SDS011;44149;43.060;0.104;2022-12-07T03:21:14;1.47;;;0.60;;
58340;SDS011;44149;43.060;0.104;2022-12-07T03:23:42;0.40;;;0.40;;
58340;SDS011;44149;43.060;0.104;2022-12-07T03:26:11;3.85;;;0.65;;
58340;SDS011;44149;43.060;0.104;2022-12-07T03:28:40;0.85;;;0.50;;
58340;SDS011;44149;43.060;0.104;2022-12-07T03:31:10;1.20;;;0.60;;
58340;SDS011;44149;43.060;0.104;2022-12-07T03:34:25;0.50;;;0.50;;
58340;SDS011;44149;43.060;0.104;2022-12-07T03:36:29;2.25;;;0.60;;
58340;SDS011;44149;43.060;0.104;2022-12-07T03:39:00;0.50;;;0.43;;
58340;SDS011;44149;43.060;0.104;2022-12-07T03:41:29;0.57;;;0.50;;
58340;SDS011;44149;43.060;0.104;2022-12-07T03:43:56;1.60;;;0.70;;
58340;SDS011;44149;43.060;0.104;2022-12-07T03:56:38;0.98;;;0.60;;
58340;SDS011;44149;43.060;0.104;2022-12-07T03:59:05;1.85;;;0.90;;
58340;SDS011;44149;43.060;0.104;2022-12-07T04:01:31;4.07;;;0.80;;
58340;SDS011;44149;43.060;0.104;2022-12-07T04:03:57;2.28;;;0.80;;
58340;SDS011;44149;43.060;0.104;2022-12-07T04:06:24;0.50;;;0.50;;
58340;SDS011;44149;43.060;0.104;2022-12-07T04:08:50;2.25;;;1.27;;
58340;SDS011;44149;43.060;0.104;2022-12-07T04:11:16;1.25;;;1.15;;
58340;SDS011;44149;43.060;0.104;2022-12-07T04:13:42;1.13;;;0.82;;
58340;SDS011;44149;43.060;0.104;2022-12-07T04:16:27;1.55;;;0.63;;
58340;SDS011;44149;43.060;0.104;2022-12-07T04:18:53;2.10;;;0.98;;
58340;SDS011;44149;43.060;0.104;2022-12-07T04:21:19;0.68;;;0.57;;
58340;SDS011;44149;43.060;0.104;2022-12-07T04:23:45;0.88;;;0.45;;
58340;SDS011;44149;43.060;0.104;2022-12-07T04:26:12;1.25;;;1.10;;
58340;SDS011;44149;43.060;0.104;2022-12-07T04:28:38;0.60;;;0.50;;
58340;SDS011;44149;43.060;0.104;2022-12-07T04:31:04;0.50;;;0.50;;
58340;SDS011;44149;43.060;0.104;2022-12-07T04:33:30;1.20;;;0.60;;
58340;SDS011;44149;43.060;0.104;2022-12-07T04:35:56;0.75;;;0.75;;
58340;SDS011;44149;43.060;0.104;2022-12-07T04:38:22;0.70;;;0.65;;
58340;SDS011;44149;43.060;0.104;2022-12-07T04:40:49;1.67;;;0.80;;
58340;SDS011;44149;43.060;0.104;2022-12-07T04:43:15;3.22;;;0.77;;
58340;SDS011;44149;43.060;0.104;2022-12-07T04:45:45;1.73;;;0.60;;
58340;SDS011;44149;43.060;0.104;2022-12-07T04:48:11;1.27;;;0.73;;
58340;SDS011;44149;43.060;0.104;2022-12-07T04:50:37;1.02;;;0.70;;
58340;SDS011;44149;43.060;0.104;2022-12-07T04:53:03;4.53;;;0.60;;
58340;SDS011;44149;43.060;0.104;2022-12-07T04:55:29;2.13;;;1.00;;
58340;SDS011;44149;43.060;0.104;2022-12-07T04:57:56;1.45;;;0.80;;
58340;SDS011;44149;43.060;0.104;2022-12-07T05:00:22;5.07;;;2.00;;
58340;SDS011;44149;43.060;0.104;2022-12-07T05:02:48;0.85;;;0.50;;
58340;SDS011;44149;43.060;0.104;2022-12-07T05:05:14;0.77;;;0.70;;
58340;SDS011;44149;43.060;0.104;2022-12-07T05:07:40;2.15;;;0.68;;
58340;SDS011;44149;43.060;0.104;2022-12-07T05:10:07;0.95;;;0.80;;
58340;SDS011;44149;43.060;0.104;2022-12-07T05:12:33;2.22;;;0.50;;
58340;SDS011;44149;43.060;0.104;2022-12-07T05:14:59;0.98;;;0.88;;
58340;SDS011;44149;43.060;0.104;2022-12-07T05:17:25;1.63;;;0.73;;
58340;SDS011;44149;43.060;0.104;2022-12-07T05:19:52;0.57;;;0.52;;
58340;SDS011;44149;43.060;0.104;2022-12-07T05:22:18;0.95;;;0.63;;
58340;SDS011;44149;43.060;0.104;2022-12-07T05:24:44;0.63;;;0.60;;
58340;SDS011;44149;43.060;0.104;2022-12-07T05:27:10;1.02;;;0.52;;
58340;SDS011;44149;43.060;0.104;2022-12-07T05:29:36;2.85;;;0.80;;
58340;SDS011;44149;43.060;0.104;2022-12-07T05:32:04;0.98;;;0.60;;
58340;SDS011;44149;43.060;0.104;2022-12-07T05:34:30;1.10;;;0.70;;
58340;SDS011;44149;43.060;0.104;2022-12-07T05:36:56;1.15;;;0.95;;
58340;SDS011;44149;43.060;0.104;2022-12-07T05:39:23;2.20;;;1.15;;
58340;SDS011;44149;43.060;0.104;2022-12-07T05:41:49;2.45;;;1.55;;
58340;SDS011;44149;43.060;0.104;2022-12-07T05:44:53;1.30;;;1.20;;
58340;SDS011;44149;43.060;0.104;2022-12-07T05:47:19;1.00;;;0.70;;
58340;SDS011;44149;43.060;0.104;2022-12-07T05:49:46;2.05;;;1.10;;
58340;SDS011;44149;43.060;0.104;2022-12-07T05:52:12;1.33;;;0.77;;
58340;SDS011;44149;43.060;0.104;2022-12-07T05:54:38;1.08;;;0.75;;
58340;SDS011;44149;43.060;0.104;2022-12-07T05:57:04;1.48;;;0.85;;
58340;SDS011;44149;43.060;0.104;2022-12-07T05:59:30;1.77;;;0.65;;
58340;SDS011;44149;43.060;0.104;2022-12-07T06:01:57;2.00;;;0.80;;
58340;SDS011;44149;43.060;0.104;2022-12-07T06:04:25;3.30;;;1.25;;
58340;SDS011;44149;43.060;0.104;2022-12-07T06:06:52;2.45;;;1.00;;
58340;SDS011;44149;43.060;0.104;2022-12-07T06:09:18;2.33;;;1.08;;
58340;SDS011;44149;43.060;0.104;2022-12-07T06:11:45;1.80;;;0.82;;
58340;SDS011;44149;43.060;0.104;2022-12-07T06:14:30;3.08;;;0.90;;
58340;SDS011;44149;43.060;0.104;2022-12-07T06:16:56;2.78;;;1.08;;
58340;SDS011;44149;43.060;0.104;2022-12-07T06:19:22;2.30;;;1.02;;
58340;SDS011;44149;43.060;0.104;2022-12-07T06:21:48;5.45;;;1.65;;
58340;SDS011;44149;43.060;0.104;2022-12-07T06:24:15;1.17;;;0.82;;
58340;SDS011;44149;43.060;0.104;2022-12-07T06:26:41;3.60;;;0.88;;
58340;SDS011;44149;43.060;0.104;2022-12-07T06:29:08;2.42;;;1.13;;
58340;SDS011;44149;43.060;0.104;2022-12-07T06:31:34;1.38;;;0.82;;
58340;SDS011;44149;43.060;0.104;2022-12-07T06:34:05;2.78;;;1.00;;
58340;SDS011;44149;43.060;0.104;2022-12-07T06:36:32;2.15;;;1.00;;
58340;SDS011;44149;43.060;0.104;2022-12-07T06:38:58;3.33;;;1.27;;
58340;SDS011;44149;43.060;0.104;2022-12-07T06:41:25;2.25;;;1.05;;
58340;SDS011;44149;43.060;0.104;2022-12-07T06:43:51;3.10;;;0.95;;
58340;SDS011;44149;43.060;0.104;2022-12-07T06:46:17;1.85;;;0.80;;
58340;SDS011;44149;43.060;0.104;2022-12-07T06:48:44;1.45;;;0.65;;
58340;SDS011;44149;43.060;0.104;2022-12-07T06:51:10;1.30;;;0.60;;
58340;SDS011;44149;43.060;0.104;2022-12-07T06:53:36;1.77;;;0.93;;
58340;SDS011;44149;43.060;0.104;2022-12-07T06:56:03;1.25;;;0.88;;
58340;SDS011;44149;43.060;0.104;2022-12-07T06:58:29;1.23;;;0.60;;
58340;SDS011;44149;43.060;0.104;2022-12-07T07:00:56;1.77;;;1.20;;
58340;SDS011;44149;43.060;0.104;2022-12-07T07:03:22;1.10;;;0.90;;
58340;SDS011;44149;43.060;0.104;2022-12-07T07:05:48;3.30;;;1.00;;
58340;SDS011;44149;43.060;0.104;2022-12-07T07:08:14;2.00;;;1.05;;
58340;SDS011;44149;43.060;0.104;2022-12-07T07:10:41;1.30;;;1.02;;
58340;SDS011;44149;43.060;0.104;2022-12-07T07:13:07;4.80;;;0.90;;
58340;SDS011;44149;43.060;0.104;2022-12-07T07:15:34;1.02;;;0.77;;
58340;SDS011;44149;43.060;0.104;2022-12-07T07:18:00;0.68;;;0.50;;
58340;SDS011;44149;43.060;0.104;2022-12-07T07:20:28;0.95;;;0.82;;
58340;SDS011;44149;43.060;0.104;2022-12-07T07:22:54;3.58;;;1.20;;
58340;SDS011;44149;43.060;0.104;2022-12-07T07:25:21;1.45;;;0.95;;
58340;SDS011;44149;43.060;0.104;2022-12-07T07:27:47;1.95;;;1.27;;
58340;SDS011;44149;43.060;0.104;2022-12-07T07:30:13;10.38;;;2.97;;
58340;SDS011;44149;43.060;0.104;2022-12-07T07:32:39;6.82;;;2.40;;
58340;SDS011;44149;43.060;0.104;2022-12-07T07:35:06;7.47;;;2.53;;
58340;SDS011;44149;43.060;0.104;2022-12-07T07:37:32;8.68;;;2.95;;
58340;SDS011;44149;43.060;0.104;2022-12-07T07:39:58;10.00;;;3.05;;
58340;SDS011;44149;43.060;0.104;2022-12-07T07:42:24;9.88;;;3.70;;
58340;SDS011;44149;43.060;0.104;2022-12-07T07:44:50;10.30;;;3.35;;
58340;SDS011;44149;43.060;0.104;2022-12-07T07:47:17;9.23;;;3.78;;
58340;SDS011;44149;43.060;0.104;2022-12-07T07:49:43;14.32;;;5.20;;
58340;SDS011;44149;43.060;0.104;2022-12-07T07:52:09;10.93;;;4.20;;
58340;SDS011;44149;43.060;0.104;2022-12-07T07:54:36;8.68;;;3.38;;
58340;SDS011;44149;43.060;0.104;2022-12-07T07:57:02;5.03;;;2.53;;
58340;SDS011;44149;43.060;0.104;2022-12-07T07:59:28;4.15;;;1.23;;
58340;SDS011;44149;43.060;0.104;2022-12-07T08:01:54;3.33;;;1.33;;
58340;SDS011;44149;43.060;0.104;2022-12-07T08:04:20;1.23;;;1.13;;
58340;SDS011;44149;43.060;0.104;2022-12-07T08:06:47;3.35;;;0.90;;
58340;SDS011;44149;43.060;0.104;2022-12-07T08:09:13;10.45;;;4.65;;
58340;SDS011;44149;43.060;0.104;2022-12-07T08:11:39;7.93;;;4.22;;
58340;SDS011;44149;43.060;0.104;2022-12-07T08:14:05;3.55;;;1.95;;
58340;SDS011;44149;43.060;0.104;2022-12-07T08:16:31;3.85;;;1.67;;
58340;SDS011;44149;43.060;0.104;2022-12-07T08:18:57;1.73;;;1.20;;
58340;SDS011;44149;43.060;0.104;2022-12-07T08:21:23;3.20;;;2.03;;
58340;SDS011;44149;43.060;0.104;2022-12-07T08:23:50;1.10;;;0.95;;
58340;SDS011;44149;43.060;0.104;2022-12-07T08:26:16;2.92;;;0.95;;
58340;SDS011;44149;43.060;0.104;2022-12-07T08:28:42;2.30;;;1.17;;
58340;SDS011;44149;43.060;0.104;2022-12-07T08:31:11;3.35;;;1.33;;
58340;SDS011;44149;43.060;0.104;2022-12-07T08:33:38;4.03;;;1.80;;
58340;SDS011;44149;43.060;0.104;2022-12-07T08:36:05;4.55;;;1.73;;
58340;SDS011;44149;43.060;0.104;2022-12-07T08:38:31;2.47;;;1.75;;
58340;SDS011;44149;43.060;0.104;2022-12-07T08:40:58;2.90;;;1.50;;
58340;SDS011;44149;43.060;0.104;2022-12-07T08:43:24;3.05;;;1.35;;
58340;SDS011;44149;43.060;0.104;2022-12-07T08:46:09;20.17;;;8.05;;
58340;SDS011;44149;43.060;0.104;2022-12-07T08:48:38;8.82;;;2.70;;
58340;SDS011;44149;43.060;0.104;2022-12-07T08:51:05;7.15;;;2.00;;
58340;SDS011;44149;43.060;0.104;2022-12-07T08:53:31;17.67;;;4.65;;
58340;SDS011;44149;43.060;0.104;2022-12-07T08:55:59;2.85;;;1.05;;
58340;SDS011;44149;43.060;0.104;2022-12-07T08:58:25;3.90;;;1.10;;
58340;SDS011;44149;43.060;0.104;2022-12-07T09:00:52;6.30;;;1.60;;
58340;SDS011;44149;43.060;0.104;2022-12-07T09:03:18;2.67;;;1.25;;
58340;SDS011;44149;43.060;0.104;2022-12-07T09:05:44;8.82;;;1.85;;
58340;SDS011;44149;43.060;0.104;2022-12-07T09:08:10;9.43;;;1.45;;
58340;SDS011;44149;43.060;0.104;2022-12-07T09:10:36;3.10;;;1.40;;
58340;SDS011;44149;43.060;0.104;2022-12-07T09:13:03;0.85;;;0.73;;
58340;SDS011;44149;43.060;0.104;2022-12-07T09:15:29;0.70;;;0.70;;
58340;SDS011;44149;43.060;0.104;2022-12-07T09:17:56;0.77;;;0.73;;
58340;SDS011;44149;43.060;0.104;2022-12-07T09:20:22;0.77;;;0.65;;
58340;SDS011;44149;43.060;0.104;2022-12-07T09:22:48;0.73;;;0.70;;
58340;SDS011;44149;43.060;0.104;2022-12-07T09:25:15;1.27;;;0.70;;
58340;SDS011;44149;43.060;0.104;2022-12-07T09:27:41;1.77;;;0.85;;
58340;SDS011;44149;43.060;0.104;2022-12-07T09:30:08;1.35;;;0.80;;
58340;SDS011;44149;43.060;0.104;2022-12-07T09:32:34;1.83;;;1.02;;
58340;SDS011;44149;43.060;0.104;2022-12-07T09:35:00;3.53;;;1.23;;
58340;SDS011;44149;43.060;0.104;2022-12-07T09:37:26;3.20;;;1.20;;
58340;SDS011;44149;43.060;0.104;2022-12-07T09:39:53;2.22;;;1.20;;
58340;SDS011;44149;43.060;0.104;2022-12-07T09:42:29;4.68;;;1.02;;
58340;SDS011;44149;43.060;0.104;2022-12-07T09:44:55;2.80;;;1.02;;
58340;SDS011;44149;43.060;0.104;2022-12-07T09:47:21;1.60;;;0.93;;
58340;SDS011;44149;43.060;0.104;2022-12-07T09:49:48;2.38;;;1.15;;
58340;SDS011;44149;43.060;0.104;2022-12-07T09:52:19;1.45;;;0.98;;
58340;SDS011;44149;43.060;0.104;2022-12-07T09:54:47;1.55;;;0.90;;
58340;SDS011;44149;43.060;0.104;2022-12-07T09:57:14;3.10;;;1.05;;
58340;SDS011;44149;43.060;0.104;2022-12-07T10:02:35;10.18;;;2.90;;
58340;SDS011;44149;43.060;0.104;2022-12-07T10:05:03;8.55;;;3.17;;
58340;SDS011;44149;43.060;0.104;2022-12-07T10:07:29;13.52;;;3.63;;
58340;SDS011;44149;43.060;0.104;2022-12-07T10:09:56;10.45;;;2.22;;
58340;SDS011;44149;43.060;0.104;2022-12-07T10:12:22;8.45;;;2.30;;
58340;SDS011;44149;43.060;0.104;2022-12-07T10:15:01;12.65;;;1.73;;
58340;SDS011;44149;43.060;0.104;2022-12-07T10:17:40;7.60;;;1.90;;
58340;SDS011;44149;43.060;0.104;2022-12-07T10:22:34;5.88;;;1.85;;
58340;SDS011;44149;43.060;0.104;2022-12-07T10:25:07;1.95;;;1.23;;
58340;SDS011;44149;43.060;0.104;2022-12-07T10:27:33;3.53;;;1.10;;
58340;SDS011;44149;43.060;0.104;2022-12-07T10:30:01;1.33;;;0.90;;
58340;SDS011;44149;43.060;0.104;2022-12-07T10:32:34;2.28;;;1.00;;
58340;SDS011;44149;43.060;0.104;2022-12-07T10:37:45;1.40;;;1.10;;
58340;SDS011;44149;43.060;0.104;2022-12-07T10:40:31;1.48;;;1.10;;
58340;SDS011;44149;43.060;0.104;2022-12-07T10:43:05;4.75;;;1.85;;
58340;SDS011;44149;43.060;0.104;2022-12-07T10:48:18;2.17;;;1.00;;
58340;SDS011;44149;43.060;0.104;2022-12-07T11:03:36;1.27;;;0.82;;
58340;SDS011;44149;43.060;0.104;2022-12-07T11:06:10;2.28;;;0.70;;
58340;SDS011;44149;43.060;0.104;2022-12-07T11:08:41;1.83;;;1.00;;
58340;SDS011;44149;43.060;0.104;2022-12-07T11:11:14;1.95;;;1.33;;
58340;SDS011;44149;43.060;0.104;2022-12-07T11:16:37;1.58;;;1.17;;
58340;SDS011;44149;43.060;0.104;2022-12-07T11:27:35;5.00;;;1.52;;
58340;SDS011;44149;43.060;0.104;2022-12-07T11:35:24;3.38;;;1.75;;
58340;SDS011;44149;43.060;0.104;2022-12-07T11:37:57;5.20;;;1.48;;
58340;SDS011;44149;43.060;0.104;2022-12-07T11:40:31;2.45;;;1.42;;
58340;SDS011;44149;43.060;0.104;2022-12-07T11:43:12;2.33;;;1.25;;
58340;SDS011;44149;43.060;0.104;2022-12-07T11:45:41;2.05;;;1.45;;
58340;SDS011;44149;43.060;0.104;2022-12-07T11:48:14;3.70;;;1.45;;
58340;SDS011;44149;43.060;0.104;2022-12-07T11:50:41;1.65;;;1.45;;
58340;SDS011;44149;43.060;0.104;2022-12-07T12:00:55;3.72;;;1.75;;
58340;SDS011;44149;43.060;0.104;2022-12-07T12:03:32;3.38;;;1.50;;
58340;SDS011;44149;43.060;0.104;2022-12-07T12:06:00;2.88;;;1.73;;
58340;SDS011;44149;43.060;0.104;2022-12-07T12:08:28;2.53;;;1.58;;
58340;SDS011;44149;43.060;0.104;2022-12-07T12:21:38;2.60;;;1.23;;
58340;SDS011;44149;43.060;0.104;2022-12-07T12:24:26;1.58;;;0.95;;
58340;SDS011;44149;43.060;0.104;2022-12-07T12:26:52;1.27;;;0.90;;
58340;SDS011;44149;43.060;0.104;2022-12-07T12:31:47;0.88;;;0.88;;
58340;SDS011;44149;43.060;0.104;2022-12-07T12:34:38;2.05;;;1.23;;
58340;SDS011;44149;43.060;0.104;2022-12-07T12:37:14;2.17;;;1.25;;
58340;SDS011;44149;43.060;0.104;2022-12-07T12:45:22;5.18;;;1.40;;
58340;SDS011;44149;43.060;0.104;2022-12-07T12:48:02;3.67;;;1.70;;
58340;SDS011;44149;43.060;0.104;2022-12-07T13:00:47;3.05;;;1.20;;
58340;SDS011;44149;43.060;0.104;2022-12-07T13:03:22;1.50;;;1.05;;
58340;SDS011;44149;43.060;0.104;2022-12-07T13:05:57;2.38;;;1.23;;
58340;SDS011;44149;43.060;0.104;2022-12-07T13:08:36;1.83;;;1.00;;
58340;SDS011;44149;43.060;0.104;2022-12-07T13:11:19;2.25;;;1.10;;
58340;SDS011;44149;43.060;0.104;2022-12-07T13:13:50;2.40;;;1.23;;
58340;SDS011;44149;43.060;0.104;2022-12-07T13:18:42;5.22;;;1.75;;
58340;SDS011;44149;43.060;0.104;2022-12-07T13:26:09;4.47;;;2.38;;
58340;SDS011;44149;43.060;0.104;2022-12-07T13:28:40;5.85;;;2.50;;
58340;SDS011;44149;43.060;0.104;2022-12-07T13:33:34;5.00;;;2.00;;
58340;SDS011;44149;43.060;0.104;2022-12-07T13:36:00;4.00;;;1.98;;
58340;SDS011;44149;43.060;0.104;2022-12-07T13:38:27;4.43;;;2.10;;
58340;SDS011;44149;43.060;0.104;2022-12-07T13:43:27;3.10;;;1.80;;
58340;SDS011;44149;43.060;0.104;2022-12-07T13:45:56;5.18;;;1.70;;
58340;SDS011;44149;43.060;0.104;2022-12-07T13:50:58;5.80;;;2.78;;
58340;SDS011;44149;43.060;0.104;2022-12-07T13:53:26;16.85;;;3.70;;
58340;SDS011;44149;43.060;0.104;2022-12-07T13:55:59;6.55;;;2.05;;
58340;SDS011;44149;43.060;0.104;2022-12-07T13:58:26;4.70;;;2.40;;
58340;SDS011;44149;43.060;0.104;2022-12-07T14:00:52;2.97;;;2.20;;
58340;SDS011;44149;43.060;0.104;2022-12-07T14:03:26;3.22;;;1.88;;
58340;SDS011;44149;43.060;0.104;2022-12-07T14:06:07;6.18;;;2.05;;
58340;SDS011;44149;43.060;0.104;2022-12-07T14:08:33;6.45;;;2.33;;
58340;SDS011;44149;43.060;0.104;2022-12-07T14:10:59;5.88;;;2.65;;
58340;SDS011;44149;43.060;0.104;2022-12-07T14:15:52;2.95;;;2.15;;
58340;SDS011;44149;43.060;0.104;2022-12-07T14:18:36;3.92;;;2.00;;
58340;SDS011;44149;43.060;0.104;2022-12-07T14:21:14;3.55;;;1.75;;
58340;SDS011;44149;43.060;0.104;2022-12-07T14:23:41;2.85;;;1.80;;
58340;SDS011;44149;43.060;0.104;2022-12-07T14:26:09;5.20;;;2.40;;
58340;SDS011;44149;43.060;0.104;2022-12-07T14:28:37;5.35;;;2.28;;
58340;SDS011;44149;43.060;0.104;2022-12-07T14:31:07;3.53;;;2.00;;
58340;SDS011;44149;43.060;0.104;2022-12-07T14:33:34;5.00;;;2.17;;
58340;SDS011;44149;43.060;0.104;2022-12-07T14:36:00;3.55;;;1.83;;
58340;SDS011;44149;43.060;0.104;2022-12-07T14:38:27;2.63;;;1.55;;
58340;SDS011;44149;43.060;0.104;2022-12-07T14:40:53;5.57;;;1.52;;
58340;SDS011;44149;43.060;0.104;2022-12-07T14:43:19;1.95;;;1.40;;
58340;SDS011;44149;43.060;0.104;2022-12-07T14:45:46;3.20;;;1.67;;
58340;SDS011;44149;43.060;0.104;2022-12-07T14:48:13;1.50;;;1.40;;
58340;SDS011;44149;43.060;0.104;2022-12-07T14:50:49;5.45;;;2.50;;
58340;SDS011;44149;43.060;0.104;2022-12-07T14:53:17;4.15;;;2.78;;
58340;SDS011;44149;43.060;0.104;2022-12-07T14:55:44;5.30;;;1.95;;
58340;SDS011;44149;43.060;0.104;2022-12-07T14:58:14;4.57;;;2.20;;
58340;SDS011;44149;43.060;0.104;2022-12-07T15:00:40;6.53;;;2.05;;
58340;SDS011;44149;43.060;0.104;2022-12-07T15:03:07;2.80;;;2.03;;
58340;SDS011;44149;43.060;0.104;2022-12-07T15:05:33;5.35;;;2.15;;
58340;SDS011;44149;43.060;0.104;2022-12-07T15:08:00;6.63;;;2.33;;
58340;SDS011;44149;43.060;0.104;2022-12-07T15:10:27;4.38;;;2.40;;
58340;SDS011;44149;43.060;0.104;2022-12-07T15:12:57;3.67;;;2.20;;
58340;SDS011;44149;43.060;0.104;2022-12-07T15:15:43;4.93;;;2.55;;
58340;SDS011;44149;43.060;0.104;2022-12-07T15:18:09;3.40;;;1.83;;
58340;SDS011;44149;43.060;0.104;2022-12-07T15:20:36;4.05;;;1.75;;
58340;SDS011;44149;43.060;0.104;2022-12-07T15:23:02;4.57;;;2.13;;
58340;SDS011;44149;43.060;0.104;2022-12-07T15:25:28;4.28;;;2.22;;
58340;SDS011;44149;43.060;0.104;2022-12-07T15:27:54;4.78;;;2.30;;
58340;SDS011;44149;43.060;0.104;2022-12-07T15:30:20;4.68;;;1.88;;
58340;SDS011;44149;43.060;0.104;2022-12-07T15:32:50;5.88;;;2.72;;
58340;SDS011;44149;43.060;0.104;2022-12-07T15:35:16;8.15;;;2.42;;
58340;SDS011;44149;43.060;0.104;2022-12-07T15:37:42;5.90;;;2.85;;
58340;SDS011;44149;43.060;0.104;2022-12-07T15:40:09;3.95;;;2.25;;
58340;SDS011;44149;43.060;0.104;2022-12-07T15:42:35;5.18;;;2.35;;
58340;SDS011;44149;43.060;0.104;2022-12-07T15:45:02;4.93;;;2.50;;
58340;SDS011;44149;43.060;0.104;2022-12-07T15:47:29;5.85;;;3.03;;
58340;SDS011;44149;43.060;0.104;2022-12-07T15:49:56;6.03;;;2.90;;
58340;SDS011;44149;43.060;0.104;2022-12-07T15:52:22;5.35;;;2.63;;
58340;SDS011;44149;43.060;0.104;2022-12-07T15:54:48;6.07;;;2.50;;
58340;SDS011;44149;43.060;0.104;2022-12-07T15:57:14;4.30;;;2.08;;
58340;SDS011;44149;43.060;0.104;2022-12-07T15:59:41;8.43;;;2.80;;
58340;SDS011;44149;43.060;0.104;2022-12-07T16:02:08;4.00;;;2.33;;
58340;SDS011;44149;43.060;0.104;2022-12-07T16:04:35;6.57;;;2.53;;
58340;SDS011;44149;43.060;0.104;2022-12-07T16:07:01;8.27;;;2.42;;
58340;SDS011;44149;43.060;0.104;2022-12-07T16:09:27;3.63;;;1.83;;
58340;SDS011;44149;43.060;0.104;2022-12-07T16:11:54;6.15;;;2.17;;
58340;SDS011;44149;43.060;0.104;2022-12-07T16:14:20;9.20;;;3.28;;
58340;SDS011;44149;43.060;0.104;2022-12-07T16:16:47;3.30;;;2.80;;
58340;SDS011;44149;43.060;0.104;2022-12-07T16:19:13;7.03;;;2.50;;
58340;SDS011;44149;43.060;0.104;2022-12-07T16:21:39;5.47;;;2.70;;
58340;SDS011;44149;43.060;0.104;2022-12-07T16:24:07;6.50;;;2.80;;
58340;SDS011;44149;43.060;0.104;2022-12-07T16:26:35;5.40;;;2.60;;
58340;SDS011;44149;43.060;0.104;2022-12-07T16:29:01;4.60;;;2.72;;
58340;SDS011;44149;43.060;0.104;2022-12-07T16:31:28;6.68;;;3.10;;
58340;SDS011;44149;43.060;0.104;2022-12-07T16:33:55;8.05;;;3.22;;
58340;SDS011;44149;43.060;0.104;2022-12-07T16:36:21;5.80;;;2.97;;
58340;SDS011;44149;43.060;0.104;2022-12-07T16:38:49;4.80;;;2.25;;
58340;SDS011;44149;43.060;0.104;2022-12-07T16:41:16;4.20;;;2.45;;
58340;SDS011;44149;43.060;0.104;2022-12-07T16:43:42;4.88;;;2.55;;
58340;SDS011;44149;43.060;0.104;2022-12-07T16:46:09;4.78;;;2.38;;
58340;SDS011;44149;43.060;0.104;2022-12-07T16:48:36;7.65;;;3.08;;
58340;SDS011;44149;43.060;0.104;2022-12-07T16:51:07;5.85;;;2.67;;
58340;SDS011;44149;43.060;0.104;2022-12-07T16:53:34;10.23;;;3.08;;
58340;SDS011;44149;43.060;0.104;2022-12-07T16:56:00;6.68;;;2.70;;
58340;SDS011;44149;43.060;0.104;2022-12-07T16:58:26;4.25;;;2.47;;
58340;SDS011;44149;43.060;0.104;2022-12-07T17:00:52;6.95;;;3.33;;
58340;SDS011;44149;43.060;0.104;2022-12-07T17:03:19;5.53;;;2.67;;
58340;SDS011;44149;43.060;0.104;2022-12-07T17:05:45;5.63;;;3.70;;
58340;SDS011;44149;43.060;0.104;2022-12-07T17:08:12;11.48;;;3.20;;
58340;SDS011;44149;43.060;0.104;2022-12-07T17:10:40;6.65;;;3.20;;
58340;SDS011;44149;43.060;0.104;2022-12-07T17:13:07;5.50;;;2.90;;